sensor_id;sensor_type;location;lat;lon;timestamp;temperature;humidity
52513;DHT22;38422;53.172;6.974;2023-03-01T00:00:14;2.90;99.90
52513;DHT22;38422;53.172;6.974;2023-03-01T00:02:40;2.90;99.90
52513;DHT22;38422;53.172;6.974;2023-03-01T00:05:06;2.90;99.90
52513;DHT22;38422;53.172;6.974;2023-03-01T00:07:33;2.80;99.90
52513;DHT22;38422;53.172;6.974;2023-03-01T00:09:58;2.80;99.90
52513;DHT22;38422;53.172;6.974;2023-03-01T00:12:24;2.80;99.90
52513;DHT22;38422;53.172;6.974;2023-03-01T00:14:50;2.80;99.90
52513;DHT22;38422;53.172;6.974;2023-03-01T00:17:15;2.70;99.90
52513;DHT22;38422;53.172;6.974;2023-03-01T00:19:42;2.70;99.90
52513;DHT22;38422;53.172;6.974;2023-03-01T00:22:08;2.60;99.90
52513;DHT22;38422;53.172;6.974;2023-03-01T00:24:33;2.60;99.90
52513;DHT22;38422;53.172;6.974;2023-03-01T00:26:59;2.60;99.90
52513;DHT22;38422;53.172;6.974;2023-03-01T00:29:25;2.50;99.90
52513;DHT22;38422;53.172;6.974;2023-03-01T00:31:51;2.50;99.90
52513;DHT22;38422;53.172;6.974;2023-03-01T00:34:16;2.50;99.90
52513;DHT22;38422;53.172;6.974;2023-03-01T00:36:42;2.50;99.90
52513;DHT22;38422;53.172;6.974;2023-03-01T00:39:13;2.50;99.90
52513;DHT22;38422;53.172;6.974;2023-03-01T00:41:39;2.50;99.90
52513;DHT22;38422;53.172;6.974;2023-03-01T00:44:05;2.40;99.90
52513;DHT22;38422;53.172;6.974;2023-03-01T00:46:31;2.40;99.90
52513;DHT22;38422;53.172;6.974;2023-03-01T00:48:57;2.40;99.90
52513;DHT22;38422;53.172;6.974;2023-03-01T00:51:25;2.30;99.90
52513;DHT22;38422;53.172;6.974;2023-03-01T00:53:52;2.30;99.90
52513;DHT22;38422;53.172;6.974;2023-03-01T00:56:18;2.30;99.90
52513;DHT22;38422;53.172;6.974;2023-03-01T00:58:44;2.30;99.90
52513;DHT22;38422;53.172;6.974;2023-03-01T01:01:13;2.30;99.90
52513;DHT22;38422;53.172;6.974;2023-03-01T01:03:54;2.30;99.90
52513;DHT22;38422;53.172;6.974;2023-03-01T01:06:22;2.20;99.90
52513;DHT22;38422;53.172;6.974;2023-03-01T01:12:30;2.20;99.90
52513;DHT22;38422;53.172;6.974;2023-03-01T01:14:56;2.10;99.90
52513;DHT22;38422;53.172;6.974;2023-03-01T01:17:22;2.10;99.90
52513;DHT22;38422;53.172;6.974;2023-03-01T01:19:47;2.10;99.90
52513;DHT22;38422;53.172;6.974;2023-03-01T01:22:13;2.00;99.90
52513;DHT22;38422;53.172;6.974;2023-03-01T01:24:39;2.00;99.90
52513;DHT22;38422;53.172;6.974;2023-03-01T01:27:05;2.00;99.90
52513;DHT22;38422;53.172;6.974;2023-03-01T01:29:32;2.00;99.90
52513;DHT22;38422;53.172;6.974;2023-03-01T01:31:58;2.00;99.90
52513;DHT22;38422;53.172;6.974;2023-03-01T01:34:24;1.90;99.90
52513;DHT22;38422;53.172;6.974;2023-03-01T01:36:51;1.90;99.90
52513;DHT22;38422;53.172;6.974;2023-03-01T01:39:22;1.90;99.90
52513;DHT22;38422;53.172;6.974;2023-03-01T01:41:48;1.90;99.90
52513;DHT22;38422;53.172;6.974;2023-03-01T01:44:23;1.90;99.90
52513;DHT22;38422;53.172;6.974;2023-03-01T01:47:06;1.90;99.90
52513;DHT22;38422;53.172;6.974;2023-03-01T01:49:54;1.90;99.90
52513;DHT22;38422;53.172;6.974;2023-03-01T01:52:22;1.80;99.90
52513;DHT22;38422;53.172;6.974;2023-03-01T01:55:22;1.80;99.90
52513;DHT22;38422;53.172;6.974;2023-03-01T01:57:55;1.80;99.90
52513;DHT22;38422;53.172;6.974;2023-03-01T02:00:27;1.80;99.90
52513;DHT22;38422;53.172;6.974;2023-03-01T02:03:07;1.70;99.90
52513;DHT22;38422;53.172;6.974;2023-03-01T02:08:12;1.70;99.90
52513;DHT22;38422;53.172;6.974;2023-03-01T02:10:39;1.60;99.90
52513;DHT22;38422;53.172;6.974;2023-03-01T02:13:06;1.60;99.90
52513;DHT22;38422;53.172;6.974;2023-03-01T02:15:37;1.60;99.90
52513;DHT22;38422;53.172;6.974;2023-03-01T02:18:04;1.60;99.90
52513;DHT22;38422;53.172;6.974;2023-03-01T02:23:08;1.50;99.90
52513;DHT22;38422;53.172;6.974;2023-03-01T02:28:35;1.50;99.90
52513;DHT22;38422;53.172;6.974;2023-03-01T02:31:03;1.50;99.90
52513;DHT22;38422;53.172;6.974;2023-03-01T02:33:48;1.40;99.90
52513;DHT22;38422;53.172;6.974;2023-03-01T02:36:18;1.50;99.90
52513;DHT22;38422;53.172;6.974;2023-03-01T02:38:45;1.40;99.90
52513;DHT22;38422;53.172;6.974;2023-03-01T02:41:14;1.40;99.90
52513;DHT22;38422;53.172;6.974;2023-03-01T02:43:40;1.40;99.90
52513;DHT22;38422;53.172;6.974;2023-03-01T02:46:24;1.40;99.90
52513;DHT22;38422;53.172;6.974;2023-03-01T02:56:35;1.30;99.90
52513;DHT22;38422;53.172;6.974;2023-03-01T02:59:01;1.30;99.90
52513;DHT22;38422;53.172;6.974;2023-03-01T03:01:28;1.20;99.90
52513;DHT22;38422;53.172;6.974;2023-03-01T03:04:08;1.20;99.90
52513;DHT22;38422;53.172;6.974;2023-03-01T03:06:35;1.20;99.90
52513;DHT22;38422;53.172;6.974;2023-03-01T03:09:02;1.20;99.90
52513;DHT22;38422;53.172;6.974;2023-03-01T03:11:28;1.10;99.90
52513;DHT22;38422;53.172;6.974;2023-03-01T03:13:53;1.10;99.90
52513;DHT22;38422;53.172;6.974;2023-03-01T03:16:20;1.20;99.90
52513;DHT22;38422;53.172;6.974;2023-03-01T03:18:46;1.10;99.90
52513;DHT22;38422;53.172;6.974;2023-03-01T03:21:13;1.10;99.90
52513;DHT22;38422;53.172;6.974;2023-03-01T03:23:39;1.10;99.90
52513;DHT22;38422;53.172;6.974;2023-03-01T03:26:05;1.10;99.90
52513;DHT22;38422;53.172;6.974;2023-03-01T03:28:32;1.10;99.90
52513;DHT22;38422;53.172;6.974;2023-03-01T03:30:59;1.00;99.90
52513;DHT22;38422;53.172;6.974;2023-03-01T03:33:29;1.00;99.90
52513;DHT22;38422;53.172;6.974;2023-03-01T03:35:55;1.00;99.90
52513;DHT22;38422;53.172;6.974;2023-03-01T03:38:20;1.00;99.90
52513;DHT22;38422;53.172;6.974;2023-03-01T03:41:07;1.00;99.90
52513;DHT22;38422;53.172;6.974;2023-03-01T03:43:35;1.00;99.90
52513;DHT22;38422;53.172;6.974;2023-03-01T03:46:02;0.90;99.90
52513;DHT22;38422;53.172;6.974;2023-03-01T03:48:35;0.90;99.90
52513;DHT22;38422;53.172;6.974;2023-03-01T03:51:01;0.90;99.90
52513;DHT22;38422;53.172;6.974;2023-03-01T03:53:31;0.90;99.90
52513;DHT22;38422;53.172;6.974;2023-03-01T03:55:56;0.90;99.90
52513;DHT22;38422;53.172;6.974;2023-03-01T03:58:24;0.90;99.90
52513;DHT22;38422;53.172;6.974;2023-03-01T04:00:56;0.90;99.90
52513;DHT22;38422;53.172;6.974;2023-03-01T04:03:23;0.80;99.90
52513;DHT22;38422;53.172;6.974;2023-03-01T04:05:49;0.80;99.90
52513;DHT22;38422;53.172;6.974;2023-03-01T04:08:17;0.80;99.90
52513;DHT22;38422;53.172;6.974;2023-03-01T04:10:47;0.80;99.90
52513;DHT22;38422;53.172;6.974;2023-03-01T04:13:16;0.80;99.90
52513;DHT22;38422;53.172;6.974;2023-03-01T04:15:42;0.80;99.90
52513;DHT22;38422;53.172;6.974;2023-03-01T04:18:15;0.70;99.90
52513;DHT22;38422;53.172;6.974;2023-03-01T04:20:42;0.70;99.90
52513;DHT22;38422;53.172;6.974;2023-03-01T04:23:16;0.70;99.90
52513;DHT22;38422;53.172;6.974;2023-03-01T04:25:48;0.70;99.90
52513;DHT22;38422;53.172;6.974;2023-03-01T04:28:25;0.70;99.90
52513;DHT22;38422;53.172;6.974;2023-03-01T04:30:52;0.60;99.90
52513;DHT22;38422;53.172;6.974;2023-03-01T04:33:18;0.70;99.90
52513;DHT22;38422;53.172;6.974;2023-03-01T04:35:44;0.60;99.90
52513;DHT22;38422;53.172;6.974;2023-03-01T04:38:10;0.60;99.90
52513;DHT22;38422;53.172;6.974;2023-03-01T04:40:36;0.60;99.90
52513;DHT22;38422;53.172;6.974;2023-03-01T04:43:03;0.60;99.90
52513;DHT22;38422;53.172;6.974;2023-03-01T04:45:31;0.50;99.90
52513;DHT22;38422;53.172;6.974;2023-03-01T04:47:56;0.50;99.90
52513;DHT22;38422;53.172;6.974;2023-03-01T04:50:24;0.50;99.90
52513;DHT22;38422;53.172;6.974;2023-03-01T04:52:51;0.50;99.90
52513;DHT22;38422;53.172;6.974;2023-03-01T04:55:17;0.50;99.90
52513;DHT22;38422;53.172;6.974;2023-03-01T04:57:43;0.40;99.90
52513;DHT22;38422;53.172;6.974;2023-03-01T05:00:13;0.40;99.90
52513;DHT22;38422;53.172;6.974;2023-03-01T05:02:50;0.40;99.90
52513;DHT22;38422;53.172;6.974;2023-03-01T05:05:38;0.40;99.90
52513;DHT22;38422;53.172;6.974;2023-03-01T05:08:08;0.40;99.90
52513;DHT22;38422;53.172;6.974;2023-03-01T05:10:35;0.30;99.90
52513;DHT22;38422;53.172;6.974;2023-03-01T05:13:02;0.30;99.90
52513;DHT22;38422;53.172;6.974;2023-03-01T05:15:29;0.30;99.90
52513;DHT22;38422;53.172;6.974;2023-03-01T05:17:57;0.30;99.90
52513;DHT22;38422;53.172;6.974;2023-03-01T05:20:27;0.30;99.90
52513;DHT22;38422;53.172;6.974;2023-03-01T05:22:56;0.30;99.90
52513;DHT22;38422;53.172;6.974;2023-03-01T05:25:24;0.20;99.90
52513;DHT22;38422;53.172;6.974;2023-03-01T05:27:50;0.20;99.90
52513;DHT22;38422;53.172;6.974;2023-03-01T05:30:17;0.20;99.90
52513;DHT22;38422;53.172;6.974;2023-03-01T05:32:47;0.20;99.90
52513;DHT22;38422;53.172;6.974;2023-03-01T05:35:15;0.20;99.90
52513;DHT22;38422;53.172;6.974;2023-03-01T05:37:46;0.20;99.90
52513;DHT22;38422;53.172;6.974;2023-03-01T05:40:16;0.20;99.90
52513;DHT22;38422;53.172;6.974;2023-03-01T05:42:54;0.20;99.90
52513;DHT22;38422;53.172;6.974;2023-03-01T05:45:21;0.10;99.90
52513;DHT22;38422;53.172;6.974;2023-03-01T05:47:49;0.10;99.90
52513;DHT22;38422;53.172;6.974;2023-03-01T05:50:23;0.10;99.90
52513;DHT22;38422;53.172;6.974;2023-03-01T05:53:14;0.10;99.90
52513;DHT22;38422;53.172;6.974;2023-03-01T05:55:41;0.10;99.90
52513;DHT22;38422;53.172;6.974;2023-03-01T05:58:11;0.00;99.90
52513;DHT22;38422;53.172;6.974;2023-03-01T06:00:39;0.00;99.90
52513;DHT22;38422;53.172;6.974;2023-03-01T06:03:05;0.00;99.90
52513;DHT22;38422;53.172;6.974;2023-03-01T06:05:31;0.00;99.90
52513;DHT22;38422;53.172;6.974;2023-03-01T06:08:00;0.00;99.90
52513;DHT22;38422;53.172;6.974;2023-03-01T06:10:27;0.00;99.90
52513;DHT22;38422;53.172;6.974;2023-03-01T06:12:53;0.00;99.90
52513;DHT22;38422;53.172;6.974;2023-03-01T06:15:19;0.00;99.90
52513;DHT22;38422;53.172;6.974;2023-03-01T06:17:45;0.00;99.90
52513;DHT22;38422;53.172;6.974;2023-03-01T06:20:20;-0.10;99.90
52513;DHT22;38422;53.172;6.974;2023-03-01T06:22:47;-0.10;99.90
52513;DHT22;38422;53.172;6.974;2023-03-01T06:25:14;-0.10;99.90
52513;DHT22;38422;53.172;6.974;2023-03-01T06:27:41;-0.10;99.90
52513;DHT22;38422;53.172;6.974;2023-03-01T06:30:08;-0.10;99.90
52513;DHT22;38422;53.172;6.974;2023-03-01T06:32:36;-0.10;99.90
52513;DHT22;38422;53.172;6.974;2023-03-01T06:35:03;-0.10;99.90
52513;DHT22;38422;53.172;6.974;2023-03-01T06:37:29;-0.20;99.90
52513;DHT22;38422;53.172;6.974;2023-03-01T06:39:55;-0.20;99.90
52513;DHT22;38422;53.172;6.974;2023-03-01T06:42:20;-0.20;99.90
52513;DHT22;38422;53.172;6.974;2023-03-01T06:44:46;-0.20;99.90
52513;DHT22;38422;53.172;6.974;2023-03-01T06:47:12;-0.20;99.90
52513;DHT22;38422;53.172;6.974;2023-03-01T06:49:38;-0.20;99.90
52513;DHT22;38422;53.172;6.974;2023-03-01T06:52:04;-0.20;99.90
52513;DHT22;38422;53.172;6.974;2023-03-01T06:54:29;-0.20;99.90
52513;DHT22;38422;53.172;6.974;2023-03-01T06:56:55;-0.20;99.90
52513;DHT22;38422;53.172;6.974;2023-03-01T06:59:20;-0.20;99.90
52513;DHT22;38422;53.172;6.974;2023-03-01T07:01:46;-0.20;99.90
52513;DHT22;38422;53.172;6.974;2023-03-01T07:04:13;-0.10;99.90
52513;DHT22;38422;53.172;6.974;2023-03-01T07:06:39;-0.10;99.90
52513;DHT22;38422;53.172;6.974;2023-03-01T07:09:04;-0.10;99.90
52513;DHT22;38422;53.172;6.974;2023-03-01T07:11:54;-0.10;99.90
52513;DHT22;38422;53.172;6.974;2023-03-01T07:14:21;-0.10;99.90
52513;DHT22;38422;53.172;6.974;2023-03-01T07:16:47;0.00;99.90
52513;DHT22;38422;53.172;6.974;2023-03-01T07:19:13;-0.10;99.90
52513;DHT22;38422;53.172;6.974;2023-03-01T07:21:38;0.00;99.90
52513;DHT22;38422;53.172;6.974;2023-03-01T07:24:06;0.00;99.90
52513;DHT22;38422;53.172;6.974;2023-03-01T07:26:32;0.00;99.90
52513;DHT22;38422;53.172;6.974;2023-03-01T07:29:03;0.10;99.90
52513;DHT22;38422;53.172;6.974;2023-03-01T07:31:29;0.10;99.90
52513;DHT22;38422;53.172;6.974;2023-03-01T07:33:55;0.10;99.90
52513;DHT22;38422;53.172;6.974;2023-03-01T07:36:22;0.20;99.90
52513;DHT22;38422;53.172;6.974;2023-03-01T07:38:48;0.20;99.90
52513;DHT22;38422;53.172;6.974;2023-03-01T07:41:13;0.20;99.90
52513;DHT22;38422;53.172;6.974;2023-03-01T07:43:39;0.30;99.90
52513;DHT22;38422;53.172;6.974;2023-03-01T07:46:05;0.30;99.90
52513;DHT22;38422;53.172;6.974;2023-03-01T07:48:32;0.40;99.90
52513;DHT22;38422;53.172;6.974;2023-03-01T07:51:02;0.50;99.90
52513;DHT22;38422;53.172;6.974;2023-03-01T07:53:29;0.50;99.90
52513;DHT22;38422;53.172;6.974;2023-03-01T07:56:10;0.60;99.90
52513;DHT22;38422;53.172;6.974;2023-03-01T07:58:38;0.60;99.90
52513;DHT22;38422;53.172;6.974;2023-03-01T08:01:09;0.70;99.90
52513;DHT22;38422;53.172;6.974;2023-03-01T08:03:36;0.80;99.90
52513;DHT22;38422;53.172;6.974;2023-03-01T08:06:03;0.80;99.90
52513;DHT22;38422;53.172;6.974;2023-03-01T08:08:30;0.80;99.90
52513;DHT22;38422;53.172;6.974;2023-03-01T08:10:57;0.90;99.90
52513;DHT22;38422;53.172;6.974;2023-03-01T08:13:23;0.90;99.90
52513;DHT22;38422;53.172;6.974;2023-03-01T08:15:49;0.80;99.90
52513;DHT22;38422;53.172;6.974;2023-03-01T08:18:19;0.80;99.90
52513;DHT22;38422;53.172;6.974;2023-03-01T08:20:45;0.90;99.90
52513;DHT22;38422;53.172;6.974;2023-03-01T08:23:11;0.90;99.90
52513;DHT22;38422;53.172;6.974;2023-03-01T08:25:37;0.90;99.90
52513;DHT22;38422;53.172;6.974;2023-03-01T08:28:03;1.00;99.90
52513;DHT22;38422;53.172;6.974;2023-03-01T08:30:29;1.00;99.90
52513;DHT22;38422;53.172;6.974;2023-03-01T08:32:55;1.10;99.90
52513;DHT22;38422;53.172;6.974;2023-03-01T08:35:21;1.20;99.90
52513;DHT22;38422;53.172;6.974;2023-03-01T08:37:47;1.20;99.90
52513;DHT22;38422;53.172;6.974;2023-03-01T08:40:13;1.30;99.90
52513;DHT22;38422;53.172;6.974;2023-03-01T08:42:40;1.30;99.90
52513;DHT22;38422;53.172;6.974;2023-03-01T08:45:07;1.40;99.90
52513;DHT22;38422;53.172;6.974;2023-03-01T08:47:33;1.40;99.90
52513;DHT22;38422;53.172;6.974;2023-03-01T08:49:59;1.40;99.90
52513;DHT22;38422;53.172;6.974;2023-03-01T08:52:25;1.40;99.90
52513;DHT22;38422;53.172;6.974;2023-03-01T08:54:52;1.40;99.90
52513;DHT22;38422;53.172;6.974;2023-03-01T08:57:18;1.40;99.90
52513;DHT22;38422;53.172;6.974;2023-03-01T08:59:44;1.50;99.90
52513;DHT22;38422;53.172;6.974;2023-03-01T09:02:15;1.50;99.90
52513;DHT22;38422;53.172;6.974;2023-03-01T09:04:48;1.60;99.90
52513;DHT22;38422;53.172;6.974;2023-03-01T09:11:28;1.80;99.90
52513;DHT22;38422;53.172;6.974;2023-03-01T09:13:54;1.90;99.90
52513;DHT22;38422;53.172;6.974;2023-03-01T09:16:21;2.00;99.90
52513;DHT22;38422;53.172;6.974;2023-03-01T09:18:56;2.10;99.90
52513;DHT22;38422;53.172;6.974;2023-03-01T09:21:23;2.20;99.90
52513;DHT22;38422;53.172;6.974;2023-03-01T09:23:49;2.30;99.90
52513;DHT22;38422;53.172;6.974;2023-03-01T09:26:20;2.30;99.90
52513;DHT22;38422;53.172;6.974;2023-03-01T10:19:04;5.90;99.90
52513;DHT22;38422;53.172;6.974;2023-03-01T10:29:10;6.70;99.90
52513;DHT22;38422;53.172;6.974;2023-03-01T10:31:46;6.90;99.90
52513;DHT22;38422;53.172;6.974;2023-03-01T10:41:27;7.50;99.90
52513;DHT22;38422;53.172;6.974;2023-03-01T10:43:58;7.70;99.90
52513;DHT22;38422;53.172;6.974;2023-03-01T10:53:50;8.20;99.90
52513;DHT22;38422;53.172;6.974;2023-03-01T10:56:17;8.40;99.90
52513;DHT22;38422;53.172;6.974;2023-03-01T11:12:15;9.20;99.90
52513;DHT22;38422;53.172;6.974;2023-03-01T11:14:49;9.40;99.90
52513;DHT22;38422;53.172;6.974;2023-03-01T11:25:14;9.80;99.90
52513;DHT22;38422;53.172;6.974;2023-03-01T11:27:44;9.80;99.90
52513;DHT22;38422;53.172;6.974;2023-03-01T11:55:15;11.00;99.90
52513;DHT22;38422;53.172;6.974;2023-03-01T12:06:50;11.30;99.90
52513;DHT22;38422;53.172;6.974;2023-03-01T12:11:59;11.50;99.90
52513;DHT22;38422;53.172;6.974;2023-03-01T12:21:20;11.70;99.90
52513;DHT22;38422;53.172;6.974;2023-03-01T12:24:16;11.80;99.90
52513;DHT22;38422;53.172;6.974;2023-03-01T12:32:25;12.00;99.90
52513;DHT22;38422;53.172;6.974;2023-03-01T12:43:26;12.20;99.90
52513;DHT22;38422;53.172;6.974;2023-03-01T12:46:14;12.30;99.90
52513;DHT22;38422;53.172;6.974;2023-03-01T12:51:29;12.50;99.90
52513;DHT22;38422;53.172;6.974;2023-03-01T12:53:58;12.50;99.70
52513;DHT22;38422;53.172;6.974;2023-03-01T12:56:28;12.40;99.90
52513;DHT22;38422;53.172;6.974;2023-03-01T13:01:48;12.50;98.40
52513;DHT22;38422;53.172;6.974;2023-03-01T13:10:14;12.60;99.40
52513;DHT22;38422;53.172;6.974;2023-03-01T13:26:08;13.10;98.00
52513;DHT22;38422;53.172;6.974;2023-03-01T13:28:50;13.10;97.10
52513;DHT22;38422;53.172;6.974;2023-03-01T13:36:09;13.00;97.50
52513;DHT22;38422;53.172;6.974;2023-03-01T13:38:47;13.10;97.40
52513;DHT22;38422;53.172;6.974;2023-03-01T13:41:27;13.20;96.10
52513;DHT22;38422;53.172;6.974;2023-03-01T13:44:16;13.20;97.00
52513;DHT22;38422;53.172;6.974;2023-03-01T13:46:45;13.40;97.20
52513;DHT22;38422;53.172;6.974;2023-03-01T13:49:21;13.60;97.10
52513;DHT22;38422;53.172;6.974;2023-03-01T13:51:50;13.60;95.80
52513;DHT22;38422;53.172;6.974;2023-03-01T13:54:28;13.60;96.30
52513;DHT22;38422;53.172;6.974;2023-03-01T13:56:56;13.40;95.20
52513;DHT22;38422;53.172;6.974;2023-03-01T13:59:23;13.30;96.20
52513;DHT22;38422;53.172;6.974;2023-03-01T14:01:59;13.10;96.20
52513;DHT22;38422;53.172;6.974;2023-03-01T14:04:29;13.20;95.80
52513;DHT22;38422;53.172;6.974;2023-03-01T14:07:29;13.20;96.00
52513;DHT22;38422;53.172;6.974;2023-03-01T14:10:01;13.20;95.00
52513;DHT22;38422;53.172;6.974;2023-03-01T14:12:49;13.30;95.60
52513;DHT22;38422;53.172;6.974;2023-03-01T14:19:18;13.40;95.20
52513;DHT22;38422;53.172;6.974;2023-03-01T14:21:17;13.40;94.50
52513;DHT22;38422;53.172;6.974;2023-03-01T14:23:44;13.50;95.30
52513;DHT22;38422;53.172;6.974;2023-03-01T14:26:12;13.50;95.00
52513;DHT22;38422;53.172;6.974;2023-03-01T14:28:38;13.60;94.90
52513;DHT22;38422;53.172;6.974;2023-03-01T14:31:39;13.60;94.90
52513;DHT22;38422;53.172;6.974;2023-03-01T14:41:05;13.80;94.50
52513;DHT22;38422;53.172;6.974;2023-03-01T14:47:05;13.70;93.70
52513;DHT22;38422;53.172;6.974;2023-03-01T14:49:31;13.70;94.40
52513;DHT22;38422;53.172;6.974;2023-03-01T14:52:03;13.60;94.30
52513;DHT22;38422;53.172;6.974;2023-03-01T14:54:44;13.60;94.30
52513;DHT22;38422;53.172;6.974;2023-03-01T14:57:19;13.60;94.30
52513;DHT22;38422;53.172;6.974;2023-03-01T15:00:27;13.60;94.30
52513;DHT22;38422;53.172;6.974;2023-03-01T15:06:22;13.50;94.30
52513;DHT22;38422;53.172;6.974;2023-03-01T15:11:41;13.30;94.20
52513;DHT22;38422;53.172;6.974;2023-03-01T15:14:28;13.20;94.60
52513;DHT22;38422;53.172;6.974;2023-03-01T15:17:33;13.10;94.70
52513;DHT22;38422;53.172;6.974;2023-03-01T15:20:00;13.10;95.00
52513;DHT22;38422;53.172;6.974;2023-03-01T15:22:28;13.10;95.10
52513;DHT22;38422;53.172;6.974;2023-03-01T15:24:54;13.00;95.10
52513;DHT22;38422;53.172;6.974;2023-03-01T15:27:22;12.90;95.00
52513;DHT22;38422;53.172;6.974;2023-03-01T15:29:59;12.80;94.90
52513;DHT22;38422;53.172;6.974;2023-03-01T15:32:31;12.70;94.90
52513;DHT22;38422;53.172;6.974;2023-03-01T15:35:01;12.50;95.10
52513;DHT22;38422;53.172;6.974;2023-03-01T15:37:48;12.40;95.10
52513;DHT22;38422;53.172;6.974;2023-03-01T15:40:28;12.40;95.30
52513;DHT22;38422;53.172;6.974;2023-03-01T15:46:04;12.20;95.30
52513;DHT22;38422;53.172;6.974;2023-03-01T15:48:30;12.10;95.50
52513;DHT22;38422;53.172;6.974;2023-03-01T15:50:59;12.10;95.70
52513;DHT22;38422;53.172;6.974;2023-03-01T15:53:27;12.00;95.70
52513;DHT22;38422;53.172;6.974;2023-03-01T15:55:53;11.90;95.80
52513;DHT22;38422;53.172;6.974;2023-03-01T15:58:22;11.80;95.80
52513;DHT22;38422;53.172;6.974;2023-03-01T16:00:48;11.70;95.90
52513;DHT22;38422;53.172;6.974;2023-03-01T16:37:04;10.50;99.60
52513;DHT22;38422;53.172;6.974;2023-03-01T16:39:30;10.30;99.90
52513;DHT22;38422;53.172;6.974;2023-03-01T16:42:33;10.20;99.80
52513;DHT22;38422;53.172;6.974;2023-03-01T16:44:59;10.20;99.90
52513;DHT22;38422;53.172;6.974;2023-03-01T16:47:26;10.00;99.90
52513;DHT22;38422;53.172;6.974;2023-03-01T16:49:52;10.00;99.90
52513;DHT22;38422;53.172;6.974;2023-03-01T16:52:22;9.90;99.90
52513;DHT22;38422;53.172;6.974;2023-03-01T16:54:53;9.90;99.90
52513;DHT22;38422;53.172;6.974;2023-03-01T16:57:19;9.80;99.90
52513;DHT22;38422;53.172;6.974;2023-03-01T16:59:45;9.70;99.90
52513;DHT22;38422;53.172;6.974;2023-03-01T17:02:35;9.70;99.90
52513;DHT22;38422;53.172;6.974;2023-03-01T17:08:42;9.50;99.90
52513;DHT22;38422;53.172;6.974;2023-03-01T17:11:26;9.40;99.90
52513;DHT22;38422;53.172;6.974;2023-03-01T17:13:52;9.40;99.90
52513;DHT22;38422;53.172;6.974;2023-03-01T17:16:19;9.30;99.90
52513;DHT22;38422;53.172;6.974;2023-03-01T17:18:45;9.30;99.90
52513;DHT22;38422;53.172;6.974;2023-03-01T17:25:35;9.20;99.90
52513;DHT22;38422;53.172;6.974;2023-03-01T17:28:01;9.10;99.90
52513;DHT22;38422;53.172;6.974;2023-03-01T17:33:37;9.00;99.90
52513;DHT22;38422;53.172;6.974;2023-03-01T17:36:03;8.90;99.90
52513;DHT22;38422;53.172;6.974;2023-03-01T17:38:29;8.80;99.90
52513;DHT22;38422;53.172;6.974;2023-03-01T17:44:56;8.80;99.90
52513;DHT22;38422;53.172;6.974;2023-03-01T17:47:22;8.70;99.90
52513;DHT22;38422;53.172;6.974;2023-03-01T17:50:24;8.70;99.90
52513;DHT22;38422;53.172;6.974;2023-03-01T17:52:49;8.60;99.90
52513;DHT22;38422;53.172;6.974;2023-03-01T17:55:16;8.50;99.90
52513;DHT22;38422;53.172;6.974;2023-03-01T17:57:53;8.50;99.90
52513;DHT22;38422;53.172;6.974;2023-03-01T18:00:19;8.40;99.90
52513;DHT22;38422;53.172;6.974;2023-03-01T18:02:44;8.40;99.90
52513;DHT22;38422;53.172;6.974;2023-03-01T18:05:10;8.30;99.90
52513;DHT22;38422;53.172;6.974;2023-03-01T18:07:36;8.20;99.90
52513;DHT22;38422;53.172;6.974;2023-03-01T18:10:02;8.10;99.90
52513;DHT22;38422;53.172;6.974;2023-03-01T18:12:29;8.00;99.90
52513;DHT22;38422;53.172;6.974;2023-03-01T18:14:55;7.90;99.90
52513;DHT22;38422;53.172;6.974;2023-03-01T18:17:22;7.80;99.90
52513;DHT22;38422;53.172;6.974;2023-03-01T18:27:45;7.50;99.90
52513;DHT22;38422;53.172;6.974;2023-03-01T18:30:11;7.50;99.90
52513;DHT22;38422;53.172;6.974;2023-03-01T18:32:37;7.40;99.90
52513;DHT22;38422;53.172;6.974;2023-03-01T18:35:05;7.40;99.90
52513;DHT22;38422;53.172;6.974;2023-03-01T18:37:31;7.30;99.90
52513;DHT22;38422;53.172;6.974;2023-03-01T18:39:57;7.20;99.90
52513;DHT22;38422;53.172;6.974;2023-03-01T18:42:23;7.20;99.90
52513;DHT22;38422;53.172;6.974;2023-03-01T18:52:10;7.00;99.90
52513;DHT22;38422;53.172;6.974;2023-03-01T18:58:16;6.80;99.90
52513;DHT22;38422;53.172;6.974;2023-03-01T19:00:44;6.80;99.90
52513;DHT22;38422;53.172;6.974;2023-03-01T19:03:13;6.70;99.90
52513;DHT22;38422;53.172;6.974;2023-03-01T19:05:40;6.70;99.90
52513;DHT22;38422;53.172;6.974;2023-03-01T19:08:05;6.70;99.90
52513;DHT22;38422;53.172;6.974;2023-03-01T19:10:31;6.60;99.90
52513;DHT22;38422;53.172;6.974;2023-03-01T19:12:57;6.60;99.90
52513;DHT22;38422;53.172;6.974;2023-03-01T19:15:23;6.60;99.90
52513;DHT22;38422;53.172;6.974;2023-03-01T19:17:51;6.60;99.90
52513;DHT22;38422;53.172;6.974;2023-03-01T19:20:17;6.50;99.90
52513;DHT22;38422;53.172;6.974;2023-03-01T19:22:43;6.50;99.90
52513;DHT22;38422;53.172;6.974;2023-03-01T19:25:09;6.60;99.90
52513;DHT22;38422;53.172;6.974;2023-03-01T19:27:35;6.60;99.90
52513;DHT22;38422;53.172;6.974;2023-03-01T19:30:00;6.70;99.90
52513;DHT22;38422;53.172;6.974;2023-03-01T19:32:26;6.70;99.90
52513;DHT22;38422;53.172;6.974;2023-03-01T19:34:52;6.70;99.90
52513;DHT22;38422;53.172;6.974;2023-03-01T19:37:17;6.60;99.90
52513;DHT22;38422;53.172;6.974;2023-03-01T19:39:43;6.60;99.90
52513;DHT22;38422;53.172;6.974;2023-03-01T19:42:10;6.50;99.90
52513;DHT22;38422;53.172;6.974;2023-03-01T19:44:36;6.50;99.90
52513;DHT22;38422;53.172;6.974;2023-03-01T19:47:02;6.40;99.90
52513;DHT22;38422;53.172;6.974;2023-03-01T19:49:28;6.40;99.90
52513;DHT22;38422;53.172;6.974;2023-03-01T19:51:54;6.50;99.90
52513;DHT22;38422;53.172;6.974;2023-03-01T19:54:20;6.50;99.90
52513;DHT22;38422;53.172;6.974;2023-03-01T19:56:48;6.50;99.90
52513;DHT22;38422;53.172;6.974;2023-03-01T19:59:14;6.50;99.90
52513;DHT22;38422;53.172;6.974;2023-03-01T20:01:40;6.40;99.90
52513;DHT22;38422;53.172;6.974;2023-03-01T20:04:09;6.30;99.90
52513;DHT22;38422;53.172;6.974;2023-03-01T20:06:36;6.30;99.90
52513;DHT22;38422;53.172;6.974;2023-03-01T20:09:04;6.30;99.90
52513;DHT22;38422;53.172;6.974;2023-03-01T20:11:30;6.20;99.90
52513;DHT22;38422;53.172;6.974;2023-03-01T20:13:57;6.20;99.90
52513;DHT22;38422;53.172;6.974;2023-03-01T20:16:23;6.20;99.90
52513;DHT22;38422;53.172;6.974;2023-03-01T20:18:51;6.20;99.90
52513;DHT22;38422;53.172;6.974;2023-03-01T20:21:17;6.20;99.90
52513;DHT22;38422;53.172;6.974;2023-03-01T20:23:45;6.30;99.90
52513;DHT22;38422;53.172;6.974;2023-03-01T20:26:12;6.30;99.90
52513;DHT22;38422;53.172;6.974;2023-03-01T20:28:41;6.30;99.90
52513;DHT22;38422;53.172;6.974;2023-03-01T20:31:09;6.30;99.90
52513;DHT22;38422;53.172;6.974;2023-03-01T20:33:35;6.20;99.90
52513;DHT22;38422;53.172;6.974;2023-03-01T20:36:03;6.20;99.90
52513;DHT22;38422;53.172;6.974;2023-03-01T20:38:28;6.10;99.90
52513;DHT22;38422;53.172;6.974;2023-03-01T20:41:02;6.10;99.90
52513;DHT22;38422;53.172;6.974;2023-03-01T20:43:29;6.10;99.90
52513;DHT22;38422;53.172;6.974;2023-03-01T20:45:55;6.00;99.90
52513;DHT22;38422;53.172;6.974;2023-03-01T20:48:21;6.00;99.90
52513;DHT22;38422;53.172;6.974;2023-03-01T20:50:47;6.00;99.90